Time;durP1;ratioP1;P1;durP2;ratioP2;P2;SDS_P1;SDS_P2;PMS_P1;PMS_P2;Temp;Humidity;BMP_temperature;BMP_pressure;BME280_temperature;BME280_humidity;BME280_pressure;Samples;Min_cycle;Max_cycle;Signal;HPM_P1;HPM_P2
2022/11/03 00:01:01;;;;;;;;;;;;;;;;;;5051540;28;19925;-84
2022/11/03 00:03:28;;;;;;;;;;;;;;;;;;5051406;28;19924;-85
2022/11/03 00:06:05;;;;;;;;;;;;;;;;;;5052930;28;19940;-83
2022/11/03 00:08:33;;;;;;;;;;;;;;;;;;5055336;28;19931;-84
2022/11/03 00:11:00;;;;;;;;;;;;;;;;;;5056852;28;19932;-83
2022/11/03 00:13:32;;;;;;;;;;;;;;;;;;5091381;28;19935;-83
2022/11/03 00:16:00;;;;;;;;;;;;;;;;;;5075312;28;19924;-84
2022/11/03 00:18:32;;;;;;;;;;;;;;;;;;5076483;28;19928;-83
2022/11/03 00:21:05;;;;;;;;;;;;;;;;;;5075055;28;19925;-81
2022/11/03 00:23:32;;;;;;;;;;;;;;;;;;5076557;28;19928;-83
2022/11/03 00:26:00;;;;;;;;;;;;;;;;;;5076457;28;19995;-83
2022/11/03 00:28:28;;;;;;;;;;;;;;;;;;5074109;28;19948;-83
2022/11/03 00:31:00;;;;;;;;;;;;;;;;;;5075044;28;20388;-83
2022/11/03 00:33:33;;;;;;;;;;;;;;;;;;5074922;28;19928;-82
2022/11/03 00:36:01;;;;;;;;;;;;;;;;;;5073306;28;19939;-81
2022/11/03 00:38:28;;;;;;;;;;;;;;;;;;5088109;28;19924;-84
2022/11/03 00:40:56;;;;;;;;;;;;;;;;;;5054579;28;19925;-84
2022/11/03 00:43:28;;;;;;;;;;;;;;;;;;5054524;28;19924;-83
2022/11/03 00:45:56;;;;;;;;;;;;;;;;;;5055085;28;19936;-84
2022/11/03 00:48:29;;;;;;;;;;;;;;;;;;5056079;28;19928;-83
2022/11/03 00:51:02;;;;;;;;;;;;;;;;;;5079747;28;20286;-84
2022/11/03 00:53:34;;;;;;;;;;;;;;;;;;5034336;28;19925;-84
2022/11/03 00:56:02;;;;;;;;;;;;;;;;;;5044992;28;20393;-83
2022/11/03 00:58:29;;;;;;;;;;;;;;;;;;5054026;28;20293;-84
2022/11/03 01:01:02;;;;;;;;;;;;;;;;;;5055901;28;19925;-84
2022/11/03 01:03:34;;;;;;;;;;;;;;;;;;5075544;28;20377;-83
2022/11/03 01:08:47;;;;;;;;;;;;;;;;;;5067624;28;19925;-83
2022/11/03 01:13:59;;;;;;;;;;;;;;;;;;5055665;28;19932;-84
2022/11/03 01:16:27;;;;;;;;;;;;;;;;;;5053507;28;19928;-85
2022/11/03 01:18:54;;;;;;;;;;;;;;;;;;5055353;28;20289;-86
2022/11/03 01:21:22;;;;;;;;;;;;;;;;;;5055957;28;20285;-85
2022/11/03 01:23:54;;;;;;;;;;;;;;;;;;5053801;28;19925;-84
2022/11/03 01:26:27;;;;;;;;;;;;;;;;;;5055173;28;19929;-85
2022/11/03 01:28:59;;;;;;;;;;;;;;;;;;5053984;28;19925;-85
2022/11/03 01:31:27;;;;;;;;;;;;;;;;;;5053842;28;19925;-86
2022/11/03 01:33:54;;;;;;;;;;;;;;;;;;5055451;28;20296;-84
2022/11/03 01:36:27;;;;;;;;;;;;;;;;;;5055520;28;20400;-85
2022/11/03 01:38:59;;;;;;;;;;;;;;;;;;5054836;28;20297;-85
2022/11/03 01:41:27;;;;;;;;;;;;;;;;;;5053681;28;19931;-85
2022/11/03 01:43:54;;;;;;;;;;;;;;;;;;5052997;28;20384;-84
2022/11/03 01:46:27;;;;;;;;;;;;;;;;;;5053366;28;19924;-84
2022/11/03 01:49:00;;;;;;;;;;;;;;;;;;5053267;28;19925;-85
2022/11/03 01:51:27;;;;;;;;;;;;;;;;;;5053562;28;19925;-83
2022/11/03 01:54:00;;;;;;;;;;;;;;;;;;5079660;28;19925;-84
2022/11/03 01:56:28;;;;;;;;;;;;;;;;;;5032984;28;20733;-85
2022/11/03 01:58:55;;;;;;;;;;;;;;;;;;5066419;28;20285;-86
2022/11/03 02:01:23;;;;;;;;;;;;;;;;;;5071318;28;19925;-85
2022/11/03 02:03:55;;;;;;;;;;;;;;;;;;5072992;28;20006;-84
2022/11/03 02:06:23;;;;;;;;;;;;;;;;;;5053104;28;19931;-84
2022/11/03 02:08:50;;;;;;;;;;;;;;;;;;5054244;28;20369;-84
2022/11/03 02:14:08;;;;;;;;;;;;;;;;;;5052906;28;19932;-86
2022/11/03 02:16:41;;;;;;;;;;;;;;;;;;5052995;28;20396;-85
2022/11/03 02:19:13;;;;;;;;;;;;;;;;;;5052444;28;20315;-85
2022/11/03 02:21:41;;;;;;;;;;;;;;;;;;5052602;28;19924;-85
2022/11/03 02:24:13;;;;;;;;;;;;;;;;;;5052881;28;19925;-86
2022/11/03 02:26:46;;;;;;;;;;;;;;;;;;5054382;28;19948;-85
2022/11/03 02:29:13;;;;;;;;;;;;;;;;;;5068049;28;19924;-84
2022/11/03 02:31:41;;;;;;;;;;;;;;;;;;5074267;28;20364;-85
2022/11/03 02:34:13;;;;;;;;;;;;;;;;;;5059637;28;19925;-87
2022/11/03 02:36:46;;;;;;;;;;;;;;;;;;5047377;28;19932;-84
2022/11/03 02:39:13;;;;;;;;;;;;;;;;;;5053647;28;19924;-84
2022/11/03 02:41:46;;;;;;;;;;;;;;;;;;5054127;28;19924;-85
2022/11/03 02:44:13;;;;;;;;;;;;;;;;;;5054232;28;20278;-85
2022/11/03 02:46:46;;;;;;;;;;;;;;;;;;5052325;28;20373;-82
2022/11/03 02:49:18;;;;;;;;;;;;;;;;;;5053377;28;19948;-86
2022/11/03 02:51:46;;;;;;;;;;;;;;;;;;5055863;28;20374;-85
2022/11/03 02:54:13;;;;;;;;;;;;;;;;;;5032465;28;19932;-84
2022/11/03 02:56:41;;;;;;;;;;;;;;;;;;5033696;28;19925;-86
2022/11/03 02:59:13;;;;;;;;;;;;;;;;;;5032177;28;19925;-85
2022/11/03 03:01:46;;;;;;;;;;;;;;;;;;5045060;28;19924;-86
2022/11/03 03:04:14;;;;;;;;;;;;;;;;;;5071909;28;20396;-85
2022/11/03 03:06:46;;;;;;;;;;;;;;;;;;5073419;28;19925;-86
2022/11/03 03:09:19;;;;;;;;;;;;;;;;;;5073179;28;19932;-86
2022/11/03 03:11:46;;;;;;;;;;;;;;;;;;5073397;28;19924;-86
2022/11/03 03:14:14;;;;;;;;;;;;;;;;;;5054234;28;19932;-86
2022/11/03 03:16:41;;;;;;;;;;;;;;;;;;5039048;28;19925;-85
2022/11/03 03:19:09;;;;;;;;;;;;;;;;;;5042222;28;19925;-85
2022/11/03 03:21:36;;;;;;;;;;;;;;;;;;5043006;28;20297;-85
2022/11/03 03:24:09;;;;;;;;;;;;;;;;;;5051956;28;19932;-84
2022/11/03 03:26:36;;;;;;;;;;;;;;;;;;5073297;28;19931;-85
2022/11/03 03:29:09;;;;;;;;;;;;;;;;;;5071829;28;19925;-85
2022/11/03 03:31:41;;;;;;;;;;;;;;;;;;5073748;28;20292;-85
2022/11/03 03:34:09;;;;;;;;;;;;;;;;;;5072911;28;19931;-86
2022/11/03 03:36:36;;;;;;;;;;;;;;;;;;5059539;28;19924;-84
2022/11/03 03:39:04;;;;;;;;;;;;;;;;;;5051606;28;19947;-85
2022/11/03 03:41:32;;;;;;;;;;;;;;;;;;5056004;28;19932;-86
2022/11/03 03:43:59;;;;;;;;;;;;;;;;;;5057191;28;19936;-86
2022/11/03 03:46:27;;;;;;;;;;;;;;;;;;5055378;28;20385;-86
2022/11/03 03:48:55;;;;;;;;;;;;;;;;;;5056659;28;19936;-84
2022/11/03 03:51:22;;;;;;;;;;;;;;;;;;5057159;28;19925;-86
2022/11/03 03:53:50;;;;;;;;;;;;;;;;;;5062997;28;19947;-86
2022/11/03 03:56:17;;;;;;;;;;;;;;;;;;5066938;28;19932;-85
2022/11/03 03:58:45;;;;;;;;;;;;;;;;;;5056520;28;19936;-84
2022/11/03 04:01:12;;;;;;;;;;;;;;;;;;5056701;28;20646;-85
2022/11/03 04:03:40;;;;;;;;;;;;;;;;;;5057021;28;19939;-85
2022/11/03 04:06:07;;;;;;;;;;;;;;;;;;5055377;28;19932;-86
2022/11/03 04:08:35;;;;;;;;;;;;;;;;;;5055170;28;19929;-86
2022/11/03 04:22:17;;;;;;;;;;;;;;;;;;5054488;28;19932;-84
2022/11/03 04:24:44;;;;;;;;;;;;;;;;;;5088201;28;19925;-85
2022/11/03 04:27:17;;;;;;;;;;;;;;;;;;5063919;28;19924;-83
2022/11/03 04:29:44;;;;;;;;;;;;;;;;;;5074861;28;19999;-85
2022/11/03 04:32:12;;;;;;;;;;;;;;;;;;5075302;28;20301;-85
2022/11/03 04:34:39;;;;;;;;;;;;;;;;;;5076472;28;19991;-85
2022/11/03 04:37:07;;;;;;;;;;;;;;;;;;5076173;28;19924;-85
2022/11/03 04:39:34;;;;;;;;;;;;;;;;;;5074586;28;19924;-85
2022/11/03 04:42:02;;;;;;;;;;;;;;;;;;5068661;28;19932;-85
2022/11/03 04:44:29;;;;;;;;;;;;;;;;;;5047962;28;19932;-85
2022/11/03 04:47:02;;;;;;;;;;;;;;;;;;5056408;28;19939;-86
2022/11/03 04:49:29;;;;;;;;;;;;;;;;;;5062098;28;19996;-86
2022/11/03 04:51:57;;;;;;;;;;;;;;;;;;5063248;28;19925;-84
2022/11/03 04:54:29;;;;;;;;;;;;;;;;;;5054529;28;19932;-85
2022/11/03 04:57:02;;;;;;;;;;;;;;;;;;5054666;28;19925;-85
2022/11/03 04:59:34;;;;;;;;;;;;;;;;;;5054386;28;19932;-85
2022/11/03 05:02:07;;;;;;;;;;;;;;;;;;5054993;28;19931;-84
2022/11/03 05:04:34;;;;;;;;;;;;;;;;;;5054464;28;20381;-86
2022/11/03 05:07:02;;;;;;;;;;;;;;;;;;5054509;28;19931;-85
2022/11/03 05:09:34;;;;;;;;;;;;;;;;;;5055401;28;19924;-86
2022/11/03 05:12:07;;;;;;;;;;;;;;;;;;5054062;28;19925;-85
2022/11/03 05:14:39;;;;;;;;;;;;;;;;;;5087717;28;19931;-84
2022/11/03 05:17:07;;;;;;;;;;;;;;;;;;5055653;28;19925;-87
2022/11/03 05:19:39;;;;;;;;;;;;;;;;;;5033890;28;19933;-85
2022/11/03 05:22:07;;;;;;;;;;;;;;;;;;5035404;28;19926;-85
2022/11/03 05:24:39;;;;;;;;;;;;;;;;;;5033888;28;20393;-85
2022/11/03 05:27:07;;;;;;;;;;;;;;;;;;5033960;28;20289;-86
2022/11/03 05:29:39;;;;;;;;;;;;;;;;;;5035158;28;19925;-86
2022/11/03 05:32:12;;;;;;;;;;;;;;;;;;5035335;28;19925;-86
2022/11/03 05:34:39;;;;;;;;;;;;;;;;;;5039142;28;19925;-85
2022/11/03 05:37:07;;;;;;;;;;;;;;;;;;5050675;28;19925;-85
2022/11/03 05:39:34;;;;;;;;;;;;;;;;;;5049242;28;20404;-87
2022/11/03 05:42:06;;;;;;;;;;;;;;;;;;5053720;28;20293;-86
2022/11/03 05:44:35;;;;;;;;;;;;;;;;;;5053828;28;19929;-85
2022/11/03 05:47:03;;;;;;;;;;;;;;;;;;5053523;28;19948;-85
2022/11/03 05:49:35;;;;;;;;;;;;;;;;;;5054683;28;20317;-85
2022/11/03 05:52:08;;;;;;;;;;;;;;;;;;5045516;28;20278;-84
2022/11/03 05:54:35;;;;;;;;;;;;;;;;;;5067447;28;19933;-85
2022/11/03 05:57:08;;;;;;;;;;;;;;;;;;5033485;28;19925;-84
2022/11/03 05:59:35;;;;;;;;;;;;;;;;;;5049554;28;19936;-85
2022/11/03 06:02:08;;;;;;;;;;;;;;;;;;5034465;28;20374;-85
2022/11/03 06:04:36;;;;;;;;;;;;;;;;;;5034808;28;20409;-86
2022/11/03 06:07:03;;;;;;;;;;;;;;;;;;5049547;28;19925;-86
2022/11/03 06:09:36;;;;;;;;;;;;;;;;;;5045438;28;20274;-85
2022/11/03 06:12:09;;;;;;;;;;;;;;;;;;5051641;28;19932;-84
2022/11/03 06:14:36;;;;;;;;;;;;;;;;;;5044274;28;19929;-85
2022/11/03 06:17:04;;;;;;;;;;;;;;;;;;5054318;28;20538;-85
2022/11/03 06:19:37;;;;;;;;;;;;;;;;;;5052822;28;19925;-86
2022/11/03 06:22:04;;;;;;;;;;;;;;;;;;5051089;28;19929;-84
2022/11/03 06:24:37;;;;;;;;;;;;;;;;;;5046357;28;19925;-86
2022/11/03 06:27:04;;;;;;;;;;;;;;;;;;5054338;28;19924;-86
2022/11/03 06:29:32;;;;;;;;;;;;;;;;;;5051956;28;20396;-86
2022/11/03 06:32:04;;;;;;;;;;;;;;;;;;5059624;28;19936;-85
2022/11/03 06:34:32;;;;;;;;;;;;;;;;;;5060658;28;19925;-85
2022/11/03 06:36:59;;;;;;;;;;;;;;;;;;5053497;28;19925;-86
2022/11/03 06:39:27;;;;;;;;;;;;;;;;;;5052787;28;20381;-86
2022/11/03 06:41:59;;;;;;;;;;;;;;;;;;5048863;28;20300;-86
2022/11/03 06:44:27;;;;;;;;;;;;;;;;;;5051018;28;19928;-87
2022/11/03 06:46:54;;;;;;;;;;;;;;;;;;5045853;28;19932;-85
2022/11/03 06:49:27;;;;;;;;;;;;;;;;;;5039923;28;19924;-86
2022/11/03 06:51:54;;;;;;;;;;;;;;;;;;5079585;28;19932;-86
2022/11/03 06:54:27;;;;;;;;;;;;;;;;;;5052572;28;20411;-85
2022/11/03 06:56:55;;;;;;;;;;;;;;;;;;5053290;28;19933;-86
2022/11/03 06:59:22;;;;;;;;;;;;;;;;;;5046997;28;20308;-86
2022/11/03 07:01:50;;;;;;;;;;;;;;;;;;5078246;28;19936;-86
2022/11/03 07:04:17;;;;;;;;;;;;;;;;;;5046365;28;19924;-86
2022/11/03 07:06:46;;;;;;;;;;;;;;;;;;5045627;28;19932;-86
2022/11/03 07:09:13;;;;;;;;;;;;;;;;;;5049591;28;20011;-87
2022/11/03 07:11:46;;;;;;;;;;;;;;;;;;5041464;28;19936;-85
2022/11/03 07:14:13;;;;;;;;;;;;;;;;;;5047921;28;19925;-84
2022/11/03 07:16:41;;;;;;;;;;;;;;;;;;5040672;28;19925;-84
2022/11/03 07:19:08;;;;;;;;;;;;;;;;;;5051836;28;19925;-84
2022/11/03 07:21:36;;;;;;;;;;;;;;;;;;5054082;28;19936;-86
2022/11/03 07:24:08;;;;;;;;;;;;;;;;;;5050293;28;19932;-87
2022/11/03 07:26:36;;;;;;;;;;;;;;;;;;5039314;28;19928;-88
2022/11/03 07:29:03;;;;;;;;;;;;;;;;;;5047302;28;19933;-86
2022/11/03 07:31:36;;;;;;;;;;;;;;;;;;5049593;28;19936;-87
2022/11/03 07:34:04;;;;;;;;;;;;;;;;;;5040794;28;19932;-86
2022/11/03 07:36:31;;;;;;;;;;;;;;;;;;5047424;28;20304;-84
2022/11/03 07:39:04;;;;;;;;;;;;;;;;;;5035436;28;19932;-86
2022/11/03 07:41:36;;;;;;;;;;;;;;;;;;5035155;28;19929;-86
2022/11/03 07:44:04;;;;;;;;;;;;;;;;;;5044324;28;19932;-87
2022/11/03 07:46:31;;;;;;;;;;;;;;;;;;5044538;28;19925;-87
2022/11/03 07:49:00;;;;;;;;;;;;;;;;;;5043458;28;19929;-87
2022/11/03 07:51:28;;;;;;;;;;;;;;;;;;5043476;28;19932;-86
2022/11/03 07:53:56;;;;;;;;;;;;;;;;;;5032326;28;19932;-86
2022/11/03 07:56:23;;;;;;;;;;;;;;;;;;5038386;28;19925;-86
2022/11/03 07:58:51;;;;;;;;;;;;;;;;;;5033091;28;19940;-87
2022/11/03 08:01:19;;;;;;;;;;;;;;;;;;5066911;28;19936;-85
2022/11/03 08:03:46;;;;;;;;;;;;;;;;;;5026118;28;19933;-88
2022/11/03 08:06:14;;;;;;;;;;;;;;;;;;5026712;28;20632;-86
2022/11/03 08:08:41;;;;;;;;;;;;;;;;;;5016437;28;20920;-87
2022/11/03 08:11:14;;;;;;;;;;;;;;;;;;5049952;28;19940;-85
2022/11/03 08:13:41;;;;;;;;;;;;;;;;;;5013676;28;19939;-86
2022/11/03 08:16:09;;;;;;;;;;;;;;;;;;5030366;28;19933;-86
2022/11/03 08:18:41;;;;;;;;;;;;;;;;;;5016597;28;20191;-89
2022/11/03 08:21:09;;;;;;;;;;;;;;;;;;5019300;28;20678;-87
2022/11/03 08:23:36;;;;;;;;;;;;;;;;;;5025130;28;19932;-86
2022/11/03 08:26:04;;;;;;;;;;;;;;;;;;5034534;28;19929;-86
2022/11/03 08:28:31;;;;;;;;;;;;;;;;;;5033503;28;20324;-85
2022/11/03 08:31:03;;;;;;;;;;;;;;;;;;5020566;28;20412;-86
2022/11/03 08:33:31;;;;;;;;;;;;;;;;;;5054551;28;20558;-85
2022/11/03 08:35:59;;;;;;;;;;;;;;;;;;5032883;28;20413;-85
2022/11/03 08:38:31;;;;;;;;;;;;;;;;;;5028756;28;19940;-86
2022/11/03 08:41:04;;;;;;;;;;;;;;;;;;5046034;28;19933;-85
2022/11/03 08:43:31;;;;;;;;;;;;;;;;;;5030545;28;19940;-85
2022/11/03 08:45:59;;;;;;;;;;;;;;;;;;5029636;28;19932;-86
2022/11/03 08:48:27;;;;;;;;;;;;;;;;;;5029912;28;19932;-85
2022/11/03 08:50:54;;;;;;;;;;;;;;;;;;5037024;28;20712;-85
2022/11/03 08:53:22;;;;;;;;;;;;;;;;;;5037566;28;19933;-86
2022/11/03 08:55:49;;;;;;;;;;;;;;;;;;5036254;28;19932;-86
2022/11/03 08:58:17;;;;;;;;;;;;;;;;;;5032578;28;19940;-86
2022/11/03 09:00:49;;;;;;;;;;;;;;;;;;5040521;28;19925;-85
2022/11/03 09:03:17;;;;;;;;;;;;;;;;;;5045091;28;19928;-85
2022/11/03 09:05:44;;;;;;;;;;;;;;;;;;5043859;28;20403;-86
2022/11/03 09:08:17;;;;;;;;;;;;;;;;;;5026557;28;20377;-85
2022/11/03 09:10:50;;;;;;;;;;;;;;;;;;5016654;28;19936;-85
2022/11/03 09:13:22;;;;;;;;;;;;;;;;;;5022811;28;19933;-86
2022/11/03 09:15:49;;;;;;;;;;;;;;;;;;5023050;28;19969;-87
2022/11/03 09:18:17;;;;;;;;;;;;;;;;;;5020395;28;19933;-86
2022/11/03 09:20:45;;;;;;;;;;;;;;;;;;5027017;28;20256;-86
2022/11/03 09:23:12;;;;;;;;;;;;;;;;;;5026628;28;20374;-85
2022/11/03 09:25:40;;;;;;;;;;;;;;;;;;5024392;28;19932;-86
2022/11/03 09:28:07;;;;;;;;;;;;;;;;;;5018822;28;19933;-86
2022/11/03 09:30:35;;;;;;;;;;;;;;;;;;5020757;28;19948;-85
2022/11/03 09:33:03;;;;;;;;;;;;;;;;;;5005693;28;19933;-85
2022/11/03 09:35:30;;;;;;;;;;;;;;;;;;5017340;28;19933;-85
2022/11/03 09:37:58;;;;;;;;;;;;;;;;;;5021873;28;19933;-84
2022/11/03 09:40:30;;;;;;;;;;;;;;;;;;5058335;28;20303;-85
2022/11/03 09:42:58;;;;;;;;;;;;;;;;;;5019176;28;20302;-86
2022/11/03 09:45:25;;;;;;;;;;;;;;;;;;5014484;28;19932;-85
2022/11/03 09:47:53;;;;;;;;;;;;;;;;;;5017243;28;19933;-85
2022/11/03 09:50:20;;;;;;;;;;;;;;;;;;5020069;28;19932;-85
2022/11/03 09:52:48;;;;;;;;;;;;;;;;;;5059984;28;19933;-84
2022/11/03 09:55:15;;;;;;;;;;;;;;;;;;5015383;28;19939;-85
2022/11/03 09:57:48;;;;;;;;;;;;;;;;;;5023208;28;19933;-85
2022/11/03 10:00:15;;;;;;;;;;;;;;;;;;5022419;28;20374;-85
2022/11/03 10:02:43;;;;;;;;;;;;;;;;;;5049815;28;19932;-85
2022/11/03 10:05:15;;;;;;;;;;;;;;;;;;5017803;28;19933;-86
2022/11/03 10:07:48;;;;;;;;;;;;;;;;;;5022516;28;19932;-84
2022/11/03 10:10:20;;;;;;;;;;;;;;;;;;5015005;28;19933;-85
2022/11/03 10:12:54;;;;;;;;;;;;;;;;;;5025283;28;19932;-84
2022/11/03 10:15:21;;;;;;;;;;;;;;;;;;5024796;28;19971;-85
2022/11/03 10:17:49;;;;;;;;;;;;;;;;;;5022774;28;20349;-84
2022/11/03 10:20:17;;;;;;;;;;;;;;;;;;5026104;28;19929;-83
2022/11/03 10:22:50;;;;;;;;;;;;;;;;;;5042599;28;19929;-84
2022/11/03 10:25:22;;;;;;;;;;;;;;;;;;5033362;28;19932;-85
2022/11/03 10:27:50;;;;;;;;;;;;;;;;;;5064367;28;19933;-85
2022/11/03 10:30:22;;;;;;;;;;;;;;;;;;5027960;28;19933;-85
2022/11/03 10:32:50;;;;;;;;;;;;;;;;;;5026568;28;19933;-85
2022/11/03 10:35:18;;;;;;;;;;;;;;;;;;5028657;28;21424;-86
2022/11/03 10:37:45;;;;;;;;;;;;;;;;;;5021764;28;19929;-84
2022/11/03 10:40:18;;;;;;;;;;;;;;;;;;5026318;28;19939;-85
2022/11/03 10:42:50;;;;;;;;;;;;;;;;;;5072578;28;19931;-85
2022/11/03 10:45:23;;;;;;;;;;;;;;;;;;5037112;28;21857;-84
2022/11/03 10:47:55;;;;;;;;;;;;;;;;;;5027286;28;19933;-84
2022/11/03 10:50:23;;;;;;;;;;;;;;;;;;5030186;28;19940;-85
2022/11/03 10:52:56;;;;;;;;;;;;;;;;;;5062332;28;20400;-84
2022/11/03 10:55:28;;;;;;;;;;;;;;;;;;5035412;28;19933;-84
2022/11/03 10:57:56;;;;;;;;;;;;;;;;;;5024504;28;19933;-85
2022/11/03 11:00:29;;;;;;;;;;;;;;;;;;5019014;28;20356;-86
2022/11/03 11:02:57;;;;;;;;;;;;;;;;;;5017997;28;19940;-84
2022/11/03 11:05:24;;;;;;;;;;;;;;;;;;5019290;28;19928;-85
2022/11/03 11:07:52;;;;;;;;;;;;;;;;;;5019416;28;19932;-84
2022/11/03 11:10:26;;;;;;;;;;;;;;;;;;5016023;28;22505;-85
2022/11/03 11:12:54;;;;;;;;;;;;;;;;;;5024150;28;19933;-85
2022/11/03 11:15:26;;;;;;;;;;;;;;;;;;5024049;28;19933;-84
2022/11/03 11:17:54;;;;;;;;;;;;;;;;;;5022871;28;19933;-85
2022/11/03 11:20:22;;;;;;;;;;;;;;;;;;5020975;28;19933;-84
2022/11/03 11:22:50;;;;;;;;;;;;;;;;;;5022111;28;19929;-85
2022/11/03 11:25:17;;;;;;;;;;;;;;;;;;5055359;28;19933;-84
2022/11/03 11:27:45;;;;;;;;;;;;;;;;;;5022273;28;19933;-83
2022/11/03 11:30:17;;;;;;;;;;;;;;;;;;5019589;28;19933;-84
2022/11/03 11:32:45;;;;;;;;;;;;;;;;;;5053939;28;19925;-84
2022/11/03 11:35:17;;;;;;;;;;;;;;;;;;5020897;28;19933;-84
2022/11/03 11:37:50;;;;;;;;;;;;;;;;;;5018531;28;19933;-84
2022/11/03 11:40:17;;;;;;;;;;;;;;;;;;4996509;28;19940;-84
2022/11/03 11:42:45;;;;;;;;;;;;;;;;;;5019189;28;20397;-85
2022/11/03 11:45:18;;;;;;;;;;;;;;;;;;5053056;28;20436;-84
2022/11/03 11:47:46;;;;;;;;;;;;;;;;;;5019691;28;19940;-85
2022/11/03 11:50:13;;;;;;;;;;;;;;;;;;5050747;28;19933;-84
2022/11/03 11:52:46;;;;;;;;;;;;;;;;;;5029084;28;19955;-84
2022/11/03 11:55:18;;;;;;;;;;;;;;;;;;5048734;28;20400;-84
2022/11/03 11:57:46;;;;;;;;;;;;;;;;;;5019698;28;20762;-84
2022/11/03 12:00:15;;;;;;;;;;;;;;;;;;5022456;28;19940;-84
2022/11/03 12:02:42;;;;;;;;;;;;;;;;;;5023266;28;20388;-84
2022/11/03 12:05:15;;;;;;;;;;;;;;;;;;5055731;28;20716;-84
2022/11/03 12:07:42;;;;;;;;;;;;;;;;;;5017234;28;19933;-84
2022/11/03 12:10:15;;;;;;;;;;;;;;;;;;5020798;28;20345;-85
2022/11/03 12:12:42;;;;;;;;;;;;;;;;;;5018652;28;19933;-83
2022/11/03 12:15:10;;;;;;;;;;;;;;;;;;5022990;28;19933;-83
2022/11/03 12:17:37;;;;;;;;;;;;;;;;;;5026483;28;19929;-84
2022/11/03 12:20:10;;;;;;;;;;;;;;;;;;5019127;28;19940;-83
2022/11/03 12:22:42;;;;;;;;;;;;;;;;;;5057311;28;20543;-83
2022/11/03 12:25:15;;;;;;;;;;;;;;;;;;5058487;28;19933;-85
2022/11/03 12:27:43;;;;;;;;;;;;;;;;;;5028430;28;20393;-84
2022/11/03 12:30:10;;;;;;;;;;;;;;;;;;5028581;28;20405;-84
2022/11/03 12:32:43;;;;;;;;;;;;;;;;;;5024274;28;19933;-85
2022/11/03 12:35:15;;;;;;;;;;;;;;;;;;5055055;28;19933;-85
2022/11/03 12:37:48;;;;;;;;;;;;;;;;;;5025588;28;20305;-84
2022/11/03 12:40:16;;;;;;;;;;;;;;;;;;4992193;28;19947;-85
2022/11/03 12:42:43;;;;;;;;;;;;;;;;;;5016914;28;20146;-83
2022/11/03 12:45:16;;;;;;;;;;;;;;;;;;5019307;28;19929;-84
2022/11/03 12:47:49;;;;;;;;;;;;;;;;;;5019574;28;19940;-84
2022/11/03 12:50:21;;;;;;;;;;;;;;;;;;5026935;28;20389;-83
2022/11/03 12:52:54;;;;;;;;;;;;;;;;;;5025803;28;19933;-84
2022/11/03 12:55:22;;;;;;;;;;;;;;;;;;5019912;28;19933;-87
2022/11/03 12:57:49;;;;;;;;;;;;;;;;;;5024047;28;19933;-85
2022/11/03 13:00:17;;;;;;;;;;;;;;;;;;5017990;28;19933;-84
2022/11/03 13:02:44;;;;;;;;;;;;;;;;;;5026612;28;20334;-85
2022/11/03 13:05:14;;;;;;;;;;;;;;;;;;5026685;28;19932;-84
2022/11/03 13:07:41;;;;;;;;;;;;;;;;;;5019999;28;19933;-84
2022/11/03 13:10:09;;;;;;;;;;;;;;;;;;5051238;28;19933;-85
2022/11/03 13:12:43;;;;;;;;;;;;;;;;;;5017362;28;20408;-84
2022/11/03 13:15:12;;;;;;;;;;;;;;;;;;5017389;28;20324;-84
2022/11/03 13:17:39;;;;;;;;;;;;;;;;;;5058362;28;19933;-84
2022/11/03 13:20:07;;;;;;;;;;;;;;;;;;5022712;28;20625;-84
2022/11/03 13:22:39;;;;;;;;;;;;;;;;;;5050290;28;19944;-84
2022/11/03 13:25:07;;;;;;;;;;;;;;;;;;5026530;28;19925;-84
2022/11/03 13:27:35;;;;;;;;;;;;;;;;;;5022792;28;20429;-83
2022/11/03 13:30:07;;;;;;;;;;;;;;;;;;5023550;28;21206;-84
2022/11/03 13:32:35;;;;;;;;;;;;;;;;;;5029064;28;19929;-85
2022/11/03 13:35:02;;;;;;;;;;;;;;;;;;5023287;28;19933;-83
2022/11/03 13:37:30;;;;;;;;;;;;;;;;;;5022697;28;20274;-84
2022/11/03 13:39:58;;;;;;;;;;;;;;;;;;4993821;28;20457;-86
2022/11/03 13:42:25;;;;;;;;;;;;;;;;;;5018974;28;19932;-84
2022/11/03 13:44:58;;;;;;;;;;;;;;;;;;5048294;28;19933;-84
2022/11/03 13:47:25;;;;;;;;;;;;;;;;;;5016647;28;20417;-84
2022/11/03 13:49:59;;;;;;;;;;;;;;;;;;5048951;28;19939;-85
2022/11/03 13:52:27;;;;;;;;;;;;;;;;;;5024930;28;19940;-84
2022/11/03 13:54:59;;;;;;;;;;;;;;;;;;5019485;28;19932;-85
2022/11/03 13:57:27;;;;;;;;;;;;;;;;;;5013483;28;19939;-83
2022/11/03 13:59:55;;;;;;;;;;;;;;;;;;5013397;28;19932;-83
2022/11/03 14:02:22;;;;;;;;;;;;;;;;;;5016522;28;21088;-85
2022/11/03 14:04:49;;;;;;;;;;;;;;;;;;5026171;28;20780;-85
2022/11/03 14:07:17;;;;;;;;;;;;;;;;;;5058208;28;19932;-82
2022/11/03 14:09:45;;;;;;;;;;;;;;;;;;5021700;28;19940;-84
2022/11/03 14:12:29;;;;;;;;;;;;;;;;;;5022468;28;19940;-83
2022/11/03 14:14:57;;;;;;;;;;;;;;;;;;5051537;28;19940;-84
2022/11/03 14:17:24;;;;;;;;;;;;;;;;;;5017324;28;19936;-85
2022/11/03 14:19:57;;;;;;;;;;;;;;;;;;5019966;28;19952;-84
2022/11/03 14:22:24;;;;;;;;;;;;;;;;;;5027802;28;20330;-83
2022/11/03 14:24:52;;;;;;;;;;;;;;;;;;5021969;28;19940;-85
2022/11/03 14:27:20;;;;;;;;;;;;;;;;;;5023985;28;19944;-84
2022/11/03 14:29:52;;;;;;;;;;;;;;;;;;5020662;28;19940;-84
2022/11/03 14:32:25;;;;;;;;;;;;;;;;;;5047740;28;19933;-85
2022/11/03 14:34:53;;;;;;;;;;;;;;;;;;5016778;28;20290;-84
2022/11/03 14:37:21;;;;;;;;;;;;;;;;;;5022182;28;19933;-84
2022/11/03 14:39:48;;;;;;;;;;;;;;;;;;4994643;28;19933;-83
2022/11/03 14:42:15;;;;;;;;;;;;;;;;;;5017995;28;19940;-84
2022/11/03 14:44:47;;;;;;;;;;;;;;;;;;5015333;28;19937;-84
2022/11/03 14:47:16;;;;;;;;;;;;;;;;;;5015658;28;19929;-85
2022/11/03 14:49:48;;;;;;;;;;;;;;;;;;5051157;28;19932;-84
2022/11/03 14:52:16;;;;;;;;;;;;;;;;;;5018731;28;19932;-84
2022/11/03 14:54:43;;;;;;;;;;;;;;;;;;5021294;28;19933;-84
2022/11/03 14:57:16;;;;;;;;;;;;;;;;;;5016975;28;19929;-83
2022/11/03 14:59:43;;;;;;;;;;;;;;;;;;5017532;28;19944;-84
2022/11/03 15:02:11;;;;;;;;;;;;;;;;;;5025197;28;19932;-84
2022/11/03 15:04:38;;;;;;;;;;;;;;;;;;5049592;28;20401;-82
2022/11/03 15:07:06;;;;;;;;;;;;;;;;;;5022450;28;19939;-83
2022/11/03 15:09:33;;;;;;;;;;;;;;;;;;5028806;28;19940;-83
2022/11/03 15:12:01;;;;;;;;;;;;;;;;;;5031086;28;19932;-83
2022/11/03 15:14:33;;;;;;;;;;;;;;;;;;5018383;28;19932;-84
2022/11/03 15:17:02;;;;;;;;;;;;;;;;;;5018419;28;19933;-83
2022/11/03 15:19:34;;;;;;;;;;;;;;;;;;5016963;28;20403;-84
2022/11/03 15:22:07;;;;;;;;;;;;;;;;;;5020186;28;20266;-84
2022/11/03 15:24:34;;;;;;;;;;;;;;;;;;5020876;28;19940;-84
2022/11/03 15:27:02;;;;;;;;;;;;;;;;;;5023508;28;20420;-84
2022/11/03 15:29:29;;;;;;;;;;;;;;;;;;5024349;28;19929;-82
2022/11/03 15:32:02;;;;;;;;;;;;;;;;;;5023477;28;19940;-84
2022/11/03 15:34:34;;;;;;;;;;;;;;;;;;5055003;28;19933;-84
2022/11/03 15:37:02;;;;;;;;;;;;;;;;;;5024865;28;19940;-83
2022/11/03 15:39:30;;;;;;;;;;;;;;;;;;5000658;28;19936;-84
2022/11/03 15:41:58;;;;;;;;;;;;;;;;;;5018117;28;19935;-83
2022/11/03 15:44:31;;;;;;;;;;;;;;;;;;5022363;28;19933;-82
2022/11/03 15:47:03;;;;;;;;;;;;;;;;;;5026185;28;20381;-83
2022/11/03 15:49:36;;;;;;;;;;;;;;;;;;5019377;28;19940;-82
2022/11/03 15:52:03;;;;;;;;;;;;;;;;;;5052548;28;19932;-83
2022/11/03 15:54:36;;;;;;;;;;;;;;;;;;5019969;28;19932;-83
2022/11/03 15:57:03;;;;;;;;;;;;;;;;;;5023769;28;20572;-83
2022/11/03 15:59:37;;;;;;;;;;;;;;;;;;5017635;28;20525;-83
2022/11/03 16:02:04;;;;;;;;;;;;;;;;;;5021915;28;19983;-82
2022/11/03 16:04:37;;;;;;;;;;;;;;;;;;5027541;28;19933;-83
2022/11/03 16:07:09;;;;;;;;;;;;;;;;;;5028306;28;19948;-83
2022/11/03 16:09:37;;;;;;;;;;;;;;;;;;5020184;28;20268;-82
2022/11/03 16:12:05;;;;;;;;;;;;;;;;;;5023087;28;21784;-83
2022/11/03 16:14:32;;;;;;;;;;;;;;;;;;5029506;28;20424;-84
2022/11/03 16:17:05;;;;;;;;;;;;;;;;;;5064305;28;19935;-83
2022/11/03 16:19:33;;;;;;;;;;;;;;;;;;5027640;28;20336;-82
2022/11/03 16:22:01;;;;;;;;;;;;;;;;;;5024404;28;19939;-82
2022/11/03 16:24:28;;;;;;;;;;;;;;;;;;5018791;28;19940;-82
2022/11/03 16:27:01;;;;;;;;;;;;;;;;;;5022016;28;20403;-82
2022/11/03 16:29:28;;;;;;;;;;;;;;;;;;5021258;28;19940;-84
2022/11/03 16:31:56;;;;;;;;;;;;;;;;;;5031621;28;19929;-81
2022/11/03 16:34:23;;;;;;;;;;;;;;;;;;5022901;28;20313;-83
2022/11/03 16:36:51;;;;;;;;;;;;;;;;;;5023528;28;19933;-82
2022/11/03 16:39:19;;;;;;;;;;;;;;;;;;4999289;28;20275;-82
2022/11/03 16:41:46;;;;;;;;;;;;;;;;;;5022584;28;19940;-84
2022/11/03 16:44:19;;;;;;;;;;;;;;;;;;5024890;28;20419;-82
2022/11/03 16:46:46;;;;;;;;;;;;;;;;;;5021905;28;19933;-84
2022/11/03 16:49:19;;;;;;;;;;;;;;;;;;5024845;28;19940;-82
2022/11/03 16:51:46;;;;;;;;;;;;;;;;;;5024122;28;19928;-83
2022/11/03 16:54:14;;;;;;;;;;;;;;;;;;5022174;28;19932;-83
2022/11/03 16:56:42;;;;;;;;;;;;;;;;;;5023233;28;19939;-84
2022/11/03 16:59:15;;;;;;;;;;;;;;;;;;5026059;28;19939;-83
2022/11/03 17:01:43;;;;;;;;;;;;;;;;;;5021959;28;19963;-83
2022/11/03 17:04:10;;;;;;;;;;;;;;;;;;5057130;28;19933;-83
2022/11/03 17:06:38;;;;;;;;;;;;;;;;;;5021712;28;19935;-83
2022/11/03 17:09:11;;;;;;;;;;;;;;;;;;5056336;28;19932;-84
2022/11/03 17:11:44;;;;;;;;;;;;;;;;;;5060728;28;20277;-81
2022/11/03 17:14:13;;;;;;;;;;;;;;;;;;5034396;28;20015;-84
2022/11/03 17:16:44;;;;;;;;;;;;;;;;;;5029899;28;19940;-83
2022/11/03 17:19:16;;;;;;;;;;;;;;;;;;5034741;28;19928;-82